createdAt,value
2018-04-11T00:00:20.134Z,11.30
2018-04-11T00:02:47.689Z,11.30
2018-04-11T00:05:15.223Z,11.30
2018-04-11T00:07:43.519Z,11.10
2018-04-11T00:10:11.053Z,11.10
2018-04-11T00:12:39.384Z,11.00
2018-04-11T00:15:06.909Z,11.00
2018-04-11T00:17:35.288Z,11.10
2018-04-11T00:20:02.846Z,11.10
2018-04-11T00:22:30.412Z,11.20
2018-04-11T00:24:58.060Z,11.20
2018-04-11T00:27:25.597Z,11.20
2018-04-11T00:29:53.856Z,11.10
2018-04-11T00:32:21.382Z,11.00
2018-04-11T00:34:48.937Z,11.00
2018-04-11T00:37:16.474Z,10.80
2018-04-11T00:39:44.017Z,10.70
2018-04-11T00:42:11.515Z,10.80
2018-04-11T00:44:39.024Z,10.90
2018-04-11T00:47:06.528Z,10.90
2018-04-11T00:49:34.084Z,10.80
2018-04-11T00:52:01.588Z,10.70
2018-04-11T00:54:29.857Z,10.70
2018-04-11T00:56:58.126Z,10.80
2018-04-11T00:59:26.533Z,10.80
2018-04-11T01:01:54.113Z,10.80
2018-04-11T01:04:21.617Z,10.80
2018-04-11T01:06:49.919Z,10.80
2018-04-11T01:09:18.220Z,10.80
2018-04-11T01:11:45.770Z,10.80
2018-04-11T01:14:13.305Z,10.80
2018-04-11T01:16:40.884Z,10.80
2018-04-11T01:19:08.401Z,10.70
2018-04-11T01:21:35.913Z,10.70
2018-04-11T01:24:03.564Z,10.70
2018-04-11T01:26:31.080Z,10.60
2018-04-11T01:28:59.357Z,10.40
2018-04-11T01:31:27.671Z,10.40
2018-04-11T01:33:55.210Z,10.40
2018-04-11T01:36:22.757Z,10.40
2018-04-11T01:38:51.063Z,10.60
2018-04-11T01:41:18.566Z,10.60
2018-04-11T01:43:46.102Z,10.70
2018-04-11T01:46:13.608Z,10.70
2018-04-11T01:48:41.987Z,10.60
2018-04-11T01:51:10.289Z,10.70
2018-04-11T01:53:37.793Z,10.60
2018-04-11T01:56:05.330Z,10.70
2018-04-11T01:58:32.818Z,10.60
2018-04-11T02:01:01.124Z,10.50
2018-04-11T02:03:28.656Z,10.50
2018-04-11T02:05:56.959Z,10.70
2018-04-11T02:08:24.462Z,10.70
2018-04-11T02:10:51.984Z,10.80
2018-04-11T02:13:19.489Z,10.80
2018-04-11T02:15:47.001Z,10.80
2018-04-11T02:18:14.541Z,10.80
2018-04-11T02:20:42.097Z,10.80
2018-04-11T02:23:09.554Z,10.80
2018-04-11T02:25:37.078Z,10.80
2018-04-11T02:28:04.584Z,10.70
2018-04-11T02:30:32.214Z,10.80
2018-04-11T02:33:00.594Z,10.70
2018-04-11T02:35:28.849Z,10.70
2018-04-11T02:37:56.428Z,10.70
2018-04-11T02:40:24.693Z,10.80
2018-04-11T02:42:53.005Z,10.70
2018-04-11T02:45:20.505Z,10.70
2018-04-11T02:47:48.021Z,10.70
2018-04-11T02:50:16.499Z,10.70
2018-04-11T02:52:44.059Z,10.60
2018-04-11T02:55:11.569Z,10.70
2018-04-11T02:57:39.178Z,10.70
2018-04-11T03:00:06.681Z,10.70
2018-04-11T03:02:34.210Z,10.60
2018-04-11T03:05:01.753Z,10.60
2018-04-11T03:07:29.270Z,10.60
2018-04-11T03:09:56.753Z,10.60
2018-04-11T03:12:24.262Z,10.60
2018-04-11T03:14:51.778Z,10.50
2018-04-11T03:17:19.294Z,10.50
2018-04-11T03:19:47.584Z,10.50
2018-04-11T03:22:15.861Z,10.50
2018-04-11T03:24:43.432Z,10.50
2018-04-11T03:27:10.951Z,10.50
2018-04-11T03:29:38.463Z,10.50
2018-04-11T03:32:06.014Z,10.60
2018-04-11T03:34:33.504Z,10.60
2018-04-11T03:37:01.966Z,10.60
2018-04-11T03:39:30.172Z,10.60
2018-04-11T03:41:57.743Z,10.60
2018-04-11T03:44:26.025Z,10.60
2018-04-11T03:46:54.339Z,10.50
2018-04-11T03:49:21.866Z,10.50
2018-04-11T03:51:50.173Z,10.60
2018-04-11T03:54:17.784Z,10.60
2018-04-11T03:56:46.427Z,10.80
2018-04-11T03:59:13.936Z,10.80
2018-04-11T04:01:41.502Z,10.70
2018-04-11T04:04:09.078Z,10.60
2018-04-11T04:06:37.331Z,10.60
2018-04-11T04:09:06.424Z,10.70
2018-04-11T04:11:34.708Z,10.70
2018-04-11T04:14:14.811Z,10.60
2018-04-11T04:16:54.432Z,10.60
2018-04-11T04:22:18.593Z,10.50
2018-04-11T04:24:46.884Z,10.60
2018-04-11T04:27:14.406Z,10.60
2018-04-11T04:29:42.422Z,10.60
2018-04-11T04:32:09.957Z,10.50
2018-04-11T04:34:38.242Z,10.50
2018-04-11T04:37:05.780Z,10.50
2018-04-11T04:39:35.039Z,10.50
2018-04-11T04:42:02.691Z,10.50
2018-04-11T04:44:30.868Z,10.50
2018-04-11T04:46:58.712Z,10.50
2018-04-11T04:49:26.245Z,10.60
2018-04-11T04:51:53.764Z,10.60
2018-04-11T04:54:22.049Z,10.70
2018-04-11T04:56:49.582Z,10.70
2018-04-11T04:59:17.106Z,10.70
2018-04-11T05:01:44.631Z,10.70
2018-04-11T05:04:16.968Z,10.70
2018-04-11T05:06:44.481Z,10.70
2018-04-11T05:09:12.001Z,10.60
2018-04-11T05:11:39.530Z,10.60
2018-04-11T05:14:07.058Z,10.50
2018-04-11T05:16:34.565Z,10.60
2018-04-11T05:19:02.100Z,10.50
2018-04-11T05:21:29.612Z,10.60
2018-04-11T05:23:57.888Z,10.50
2018-04-11T05:26:26.186Z,10.60
2018-04-11T05:28:53.695Z,10.60
2018-04-11T05:31:21.233Z,10.40
2018-04-11T05:33:48.850Z,10.40
2018-04-11T05:36:16.361Z,10.40
2018-04-11T05:38:43.902Z,10.30
2018-04-11T05:41:11.593Z,10.50
2018-04-11T05:43:39.104Z,10.50
2018-04-11T05:46:06.650Z,10.60
2018-04-11T05:48:34.508Z,10.70
2018-04-11T05:51:02.817Z,10.70
2018-04-11T05:53:30.325Z,10.70
2018-04-11T05:55:58.618Z,10.60
2018-04-11T05:58:26.130Z,10.60
2018-04-11T06:00:53.672Z,10.60
2018-04-11T06:03:21.204Z,10.50
2018-04-11T06:05:48.710Z,10.50
2018-04-11T06:08:16.234Z,10.60
2018-04-11T06:10:43.765Z,10.60
2018-04-11T06:13:11.287Z,10.60
2018-04-11T06:15:38.907Z,10.70
2018-04-11T06:18:06.531Z,10.70
2018-04-11T06:20:34.826Z,10.80
2018-04-11T06:23:02.370Z,10.70
2018-04-11T06:25:29.964Z,10.80
2018-04-11T06:27:57.527Z,10.80
2018-04-11T06:30:25.738Z,10.80
2018-04-11T06:32:53.257Z,10.80
2018-04-11T06:35:20.772Z,10.80
2018-04-11T06:37:49.071Z,10.80
2018-04-11T06:40:16.614Z,10.70
2018-04-11T06:42:45.370Z,10.90
2018-04-11T06:45:12.877Z,10.90
2018-04-11T06:47:40.413Z,10.80
2018-04-11T06:50:07.968Z,10.80
2018-04-11T06:52:36.277Z,10.70
2018-04-11T06:55:04.750Z,10.70
2018-04-11T06:57:32.307Z,10.80
2018-04-11T06:59:59.809Z,10.70
2018-04-11T07:02:27.361Z,10.70
2018-04-11T07:04:54.898Z,10.70
2018-04-11T07:07:22.439Z,10.80
2018-04-11T07:09:49.955Z,10.70
2018-04-11T07:12:17.493Z,10.70
2018-04-11T07:14:45.015Z,10.60
2018-04-11T07:17:12.519Z,10.60
2018-04-11T07:19:40.107Z,10.40
2018-04-11T07:22:08.370Z,10.60
2018-04-11T07:24:36.655Z,10.60
2018-04-11T07:27:04.956Z,10.40
2018-04-11T07:29:32.454Z,10.40
2018-04-11T07:31:59.982Z,10.40
2018-04-11T07:34:27.508Z,10.40
2018-04-11T07:36:55.052Z,10.40
2018-04-11T07:39:23.365Z,10.50
2018-04-11T07:41:50.900Z,10.50
2018-04-11T07:44:18.405Z,10.60
2018-04-11T07:46:45.923Z,10.60
2018-04-11T07:49:13.424Z,10.70
2018-04-11T07:51:40.948Z,10.60
2018-04-11T07:54:08.470Z,10.60
2018-04-11T07:56:36.737Z,10.60
2018-04-11T07:59:05.055Z,10.70
2018-04-11T08:01:32.579Z,10.70
2018-04-11T08:06:34.932Z,10.60
2018-04-11T08:09:02.459Z,10.60
2018-04-11T08:11:29.972Z,10.60
2018-04-11T08:13:58.266Z,10.60
2018-04-11T08:16:26.569Z,10.60
2018-04-11T08:18:54.073Z,10.60
2018-04-11T08:21:21.656Z,10.60
2018-04-11T08:23:49.440Z,10.50
2018-04-11T08:26:16.980Z,10.50
2018-04-11T08:28:45.257Z,10.50
2018-04-11T08:31:12.808Z,10.50
2018-04-11T08:33:41.104Z,10.50
2018-04-11T08:36:08.954Z,10.50
2018-04-11T08:38:37.335Z,10.50
2018-04-11T08:41:04.873Z,10.50
2018-04-11T08:43:33.187Z,10.50
2018-04-11T08:46:00.701Z,10.40
2018-04-11T08:48:28.980Z,10.50
2018-04-11T08:50:57.263Z,10.50
2018-04-11T08:53:25.565Z,10.50
2018-04-11T08:55:53.062Z,10.50
2018-04-11T08:58:20.881Z,10.50
2018-04-11T09:00:48.378Z,10.40
2018-04-11T09:03:15.902Z,10.50
2018-04-11T09:05:43.444Z,10.50
2018-04-11T09:08:11.916Z,10.50
2018-04-11T09:10:40.292Z,10.60
2018-04-11T09:13:08.591Z,10.60
2018-04-11T09:15:36.263Z,10.60
2018-04-11T09:18:03.778Z,10.60
2018-04-11T09:20:32.369Z,10.70
2018-04-11T09:23:00.703Z,10.80
2018-04-11T09:25:28.210Z,10.70
2018-04-11T09:27:56.487Z,10.90
2018-04-11T09:30:24.761Z,11.00
2018-04-11T09:32:52.311Z,10.90
2018-04-11T09:35:20.618Z,11.00
2018-04-11T09:37:48.129Z,11.00
2018-04-11T09:40:15.641Z,11.00
2018-04-11T09:42:43.189Z,11.00
2018-04-11T09:45:10.714Z,11.00
2018-04-11T09:47:39.016Z,11.00
2018-04-11T09:50:06.589Z,11.00
2018-04-11T09:52:34.331Z,11.00
2018-04-11T09:55:02.599Z,11.00
2018-04-11T09:57:30.124Z,11.00
2018-04-11T09:59:57.639Z,11.00
2018-04-11T10:02:25.187Z,11.40
2018-04-11T10:04:52.757Z,11.60
2018-04-11T10:07:20.307Z,11.80
2018-04-11T10:09:47.826Z,11.60
2018-04-11T10:12:15.356Z,11.40
2018-04-11T10:14:42.964Z,11.30
2018-04-11T10:17:11.280Z,11.30
2018-04-11T10:19:38.823Z,11.30
2018-04-11T10:22:06.336Z,11.30
2018-04-11T10:24:33.858Z,11.30
2018-04-11T10:27:01.400Z,11.20
2018-04-11T10:29:29.129Z,11.20
2018-04-11T10:31:56.685Z,11.20
2018-04-11T10:34:24.992Z,11.20
2018-04-11T10:36:52.530Z,11.10
2018-04-11T10:39:20.827Z,11.20
2018-04-11T10:41:48.335Z,11.20
2018-04-11T10:44:15.873Z,11.30
2018-04-11T10:46:43.377Z,11.30
2018-04-11T10:49:10.915Z,11.20
2018-04-11T10:51:39.206Z,11.30
2018-04-11T10:54:06.707Z,11.30
2018-04-11T10:56:34.217Z,11.30
2018-04-11T10:59:02.534Z,11.30
2018-04-11T11:01:30.059Z,11.30
2018-04-11T11:03:58.336Z,11.30
2018-04-11T11:06:25.851Z,11.30
2018-04-11T11:08:53.373Z,11.30
2018-04-11T11:11:20.886Z,11.40
2018-04-11T11:13:49.234Z,11.50
2018-04-11T11:16:16.779Z,11.50
2018-04-11T11:18:44.319Z,11.60
2018-04-11T11:21:11.875Z,11.60
2018-04-11T11:23:39.368Z,11.60
2018-04-11T11:26:06.904Z,11.60
2018-04-11T11:28:34.420Z,11.70
2018-04-11T11:31:03.000Z,11.60
2018-04-11T11:33:30.577Z,11.60
2018-04-11T11:35:58.096Z,11.70
2018-04-11T11:38:25.640Z,11.70
2018-04-11T11:40:53.140Z,11.70
2018-04-11T11:43:20.693Z,11.80
2018-04-11T11:45:48.997Z,12.50
2018-04-11T11:48:16.525Z,12.40
2018-04-11T11:50:44.949Z,12.50
2018-04-11T11:53:12.456Z,12.40
2018-04-11T11:55:40.776Z,12.50
2018-04-11T11:58:09.526Z,12.50
2018-04-11T12:00:37.841Z,12.20
2018-04-11T12:03:05.383Z,12.20
2018-04-11T12:05:32.947Z,12.50
2018-04-11T12:08:00.464Z,12.50
2018-04-11T12:10:28.786Z,12.30
2018-04-11T12:12:56.299Z,12.40
2018-04-11T12:15:24.653Z,12.00
2018-04-11T12:17:52.268Z,12.00
2018-04-11T12:20:19.793Z,12.20
2018-04-11T12:22:47.329Z,11.90
2018-04-11T12:25:14.853Z,11.80
2018-04-11T12:27:42.377Z,11.80
2018-04-11T12:30:09.924Z,11.80
2018-04-11T12:32:37.454Z,12.20
2018-04-11T12:35:04.976Z,12.30
2018-04-11T12:37:32.521Z,12.10
2018-04-11T12:40:00.055Z,12.20
2018-04-11T12:42:27.570Z,12.00
2018-04-11T12:44:55.106Z,11.90
2018-04-11T12:47:22.641Z,12.10
2018-04-11T12:49:50.935Z,12.40
2018-04-11T12:52:18.473Z,12.40
2018-04-11T12:54:46.772Z,12.80
2018-04-11T12:57:14.284Z,12.80
2018-04-11T12:59:41.834Z,12.50
2018-04-11T13:02:09.357Z,12.40
2018-04-11T13:04:36.904Z,12.20
2018-04-11T13:07:04.466Z,12.30
2018-04-11T13:09:31.988Z,12.40
2018-04-11T13:12:00.263Z,12.60
2018-04-11T13:14:28.872Z,12.50
2018-04-11T13:16:56.353Z,12.50
2018-04-11T13:19:23.876Z,12.40
2018-04-11T13:21:51.419Z,12.40
2018-04-11T13:24:19.710Z,12.90
2018-04-11T13:26:48.039Z,12.90
2018-04-11T13:29:15.569Z,13.00
2018-04-11T13:31:43.088Z,12.50
2018-04-11T13:34:11.361Z,12.50
2018-04-11T13:36:39.638Z,12.60
2018-04-11T13:39:07.931Z,12.40
2018-04-11T13:41:35.465Z,12.40
2018-04-11T13:44:03.746Z,12.50
2018-04-11T13:46:32.007Z,12.50
2018-04-11T13:48:59.597Z,12.50
2018-04-11T13:51:27.129Z,12.60
2018-04-11T13:53:55.517Z,12.60
2018-04-11T13:56:23.787Z,12.40
2018-04-11T13:58:52.109Z,12.30
2018-04-11T14:01:19.703Z,12.30
2018-04-11T14:03:47.276Z,12.30
2018-04-11T14:06:15.598Z,12.40
2018-04-11T14:08:43.106Z,12.50
2018-04-11T14:11:11.408Z,12.30
2018-04-11T14:13:38.923Z,12.20
2018-04-11T14:16:06.443Z,12.20
2018-04-11T14:18:34.114Z,12.10
2018-04-11T14:21:01.674Z,12.40
2018-04-11T14:23:29.183Z,12.60
2018-04-11T14:25:57.466Z,13.00
2018-04-11T14:28:25.825Z,13.20
2018-04-11T14:30:54.242Z,13.30
2018-04-11T14:33:21.779Z,13.30
2018-04-11T14:35:50.089Z,13.60
2018-04-11T14:38:17.632Z,13.60
2018-04-11T14:40:45.163Z,13.60
2018-04-11T14:43:13.552Z,13.80
2018-04-11T14:45:41.092Z,13.80
2018-04-11T14:48:08.641Z,13.80
2018-04-11T14:50:36.141Z,13.60
2018-04-11T14:53:03.694Z,13.60
2018-04-11T14:55:31.241Z,13.70
2018-04-11T14:57:58.773Z,13.60
2018-04-11T15:00:27.077Z,13.20
2018-04-11T15:02:55.380Z,13.20
2018-04-11T15:05:22.896Z,13.20
2018-04-11T15:07:51.182Z,13.40
2018-04-11T15:10:19.919Z,13.30
2018-04-11T15:12:47.455Z,13.30
2018-04-11T15:15:15.020Z,13.10
2018-04-11T15:17:42.519Z,13.30
2018-04-11T15:20:10.079Z,13.30
2018-04-11T15:22:37.579Z,13.30
2018-04-11T15:25:05.135Z,13.20
2018-04-11T15:27:32.681Z,13.20
2018-04-11T15:30:00.979Z,13.50
2018-04-11T15:32:28.768Z,13.50
2018-04-11T15:34:56.474Z,13.30
2018-04-11T15:37:24.968Z,13.40
2018-04-11T15:39:55.525Z,13.40
2018-04-11T15:42:23.151Z,13.60
2018-04-11T15:44:50.724Z,13.70
2018-04-11T15:47:18.251Z,13.60
2018-04-11T15:49:46.532Z,13.50
2018-04-11T15:52:14.873Z,13.50
2018-04-11T15:54:42.391Z,13.50
2018-04-11T15:57:10.042Z,13.90
2018-04-11T15:59:37.588Z,13.70
2018-04-11T16:02:05.914Z,13.60
2018-04-11T16:04:33.540Z,13.60
2018-04-11T16:07:01.074Z,13.70
2018-04-11T16:09:28.589Z,13.80
2018-04-11T16:11:56.182Z,13.70
2018-04-11T16:14:24.504Z,13.80
2018-04-11T16:16:52.096Z,13.80
2018-04-11T16:19:19.611Z,13.80
2018-04-11T16:21:47.887Z,13.80
2018-04-11T16:24:15.403Z,13.70
2018-04-11T16:26:42.950Z,13.70
2018-04-11T16:29:10.478Z,13.70
2018-04-11T16:31:38.034Z,13.70
2018-04-11T16:34:05.546Z,13.80
2018-04-11T16:36:33.865Z,13.80
2018-04-11T16:39:01.366Z,13.90
2018-04-11T16:41:29.673Z,13.90
2018-04-11T16:43:57.197Z,13.90
2018-04-11T16:46:24.782Z,13.70
2018-04-11T16:48:52.353Z,14.10
2018-04-11T16:51:19.890Z,13.90
2018-04-11T16:53:48.184Z,13.90
2018-04-11T16:56:15.695Z,13.90
2018-04-11T16:58:43.252Z,13.90
2018-04-11T17:01:10.822Z,13.90
2018-04-11T17:03:38.364Z,14.00
2018-04-11T17:06:05.978Z,14.10
2018-04-11T17:08:33.572Z,14.00
2018-04-11T17:11:01.142Z,13.90
2018-04-11T17:13:28.849Z,13.90
2018-04-11T17:15:56.505Z,13.80
2018-04-11T17:18:24.156Z,13.60
2018-04-11T17:21:03.646Z,13.60
2018-04-11T17:23:42.892Z,13.50
2018-04-11T17:26:22.520Z,13.40
2018-04-11T17:29:01.825Z,13.40
2018-04-11T17:31:31.166Z,13.40
2018-04-11T17:33:58.680Z,13.50
2018-04-11T17:36:26.221Z,13.50
2018-04-11T17:38:54.627Z,13.40
2018-04-11T17:41:22.227Z,13.40
2018-04-11T17:43:49.793Z,13.30
2018-04-11T17:46:17.326Z,13.20
2018-04-11T17:48:44.861Z,13.20
2018-04-11T17:51:12.696Z,13.30
2018-04-11T17:53:40.271Z,13.30
2018-04-11T17:56:08.114Z,13.30
2018-04-11T17:58:35.638Z,13.20
2018-04-11T18:01:03.279Z,13.20
2018-04-11T18:03:30.813Z,13.10
2018-04-11T18:05:58.358Z,13.10
2018-04-11T18:08:26.684Z,13.00
2018-04-11T18:10:54.273Z,13.00
2018-04-11T18:13:21.813Z,13.00
2018-04-11T18:15:50.858Z,12.80
2018-04-11T18:18:18.413Z,12.80
2018-04-11T18:20:45.972Z,12.70
2018-04-11T18:23:14.276Z,12.70
2018-04-11T18:25:41.816Z,12.70
2018-04-11T18:28:09.370Z,12.60
2018-04-11T18:30:36.912Z,12.50
2018-04-11T18:33:05.219Z,12.40
2018-04-11T18:35:32.981Z,12.40
2018-04-11T18:38:00.553Z,12.40
2018-04-11T18:40:28.099Z,12.30
2018-04-11T18:42:55.644Z,12.30
2018-04-11T18:45:23.145Z,12.30
2018-04-11T18:47:50.740Z,12.20
2018-04-11T18:50:19.051Z,12.00
2018-04-11T18:52:46.567Z,12.00
2018-04-11T18:55:14.985Z,11.90
2018-04-11T18:57:42.615Z,11.90
2018-04-11T19:00:10.919Z,12.00
2018-04-11T19:02:38.441Z,12.00
2018-04-11T19:05:06.766Z,12.10
2018-04-11T19:07:34.323Z,12.00
2018-04-11T19:10:01.834Z,12.00
2018-04-11T19:12:30.249Z,11.80
2018-04-11T19:14:57.801Z,11.80
2018-04-11T19:17:25.361Z,11.70
2018-04-11T19:19:52.909Z,11.60
2018-04-11T19:22:20.446Z,11.50
2018-04-11T19:24:48.705Z,11.40
2018-04-11T19:27:16.243Z,11.40
2018-04-11T19:29:43.768Z,11.40
2018-04-11T19:32:11.960Z,11.40
2018-04-11T19:34:39.478Z,11.40
2018-04-11T19:37:07.784Z,11.30
2018-04-11T19:39:35.296Z,11.30
2018-04-11T19:42:03.609Z,11.60
2018-04-11T19:44:31.120Z,11.50
2018-04-11T19:46:59.402Z,11.50
2018-04-11T19:49:27.700Z,11.60
2018-04-11T19:51:55.263Z,11.60
2018-04-11T19:54:22.788Z,11.50
2018-04-11T19:56:51.185Z,11.70
2018-04-11T19:59:19.835Z,11.60
2018-04-11T20:01:47.363Z,11.50
2018-04-11T20:04:15.735Z,11.40
2018-04-11T20:06:43.276Z,11.30
2018-04-11T20:09:10.844Z,11.20
2018-04-11T20:11:38.369Z,11.20
2018-04-11T20:14:06.669Z,11.30
2018-04-11T20:16:34.198Z,11.30
2018-04-11T20:19:02.530Z,11.20
2018-04-11T20:21:30.088Z,11.20
2018-04-11T20:23:57.628Z,11.10
2018-04-11T20:26:25.141Z,11.10
2018-04-11T20:28:52.663Z,11.00
2018-04-11T20:31:20.196Z,11.10
2018-04-11T20:33:48.072Z,11.10
2018-04-11T20:36:15.894Z,11.00
2018-04-11T20:38:43.397Z,10.90
2018-04-11T20:41:10.949Z,10.80
2018-04-11T20:43:38.499Z,10.70
2018-04-11T20:46:06.366Z,10.70
2018-04-11T20:48:34.045Z,10.80
2018-04-11T20:51:01.551Z,10.60
2018-04-11T20:53:30.037Z,10.50
2018-04-11T20:55:57.555Z,10.50
2018-04-11T20:58:25.143Z,10.30
2018-04-11T21:00:52.819Z,10.10
2018-04-11T21:03:21.105Z,9.90
2018-04-11T21:05:48.689Z,9.90
2018-04-11T21:08:16.205Z,9.80
2018-04-11T21:10:44.605Z,9.80
2018-04-11T21:13:12.740Z,9.80
2018-04-11T21:15:40.263Z,9.80
2018-04-11T21:18:07.822Z,9.70
2018-04-11T21:20:35.466Z,9.80
2018-04-11T21:23:03.024Z,9.70
2018-04-11T21:25:30.556Z,9.70
2018-04-11T21:27:58.861Z,9.70
2018-04-11T21:30:26.388Z,9.70
2018-04-11T21:32:54.802Z,9.60
2018-04-11T21:35:22.304Z,9.50
2018-04-11T21:37:50.117Z,9.50
2018-04-11T21:40:19.108Z,9.60
2018-04-11T21:42:47.603Z,9.50
2018-04-11T21:45:15.113Z,9.50
2018-04-11T21:47:43.457Z,9.40
2018-04-11T21:50:10.981Z,9.40
2018-04-11T21:52:38.507Z,9.40
2018-04-11T21:55:06.077Z,9.40
2018-04-11T21:57:33.889Z,9.30
2018-04-11T22:00:01.417Z,9.30
2018-04-11T22:02:28.944Z,9.30
2018-04-11T22:04:57.240Z,9.30
2018-04-11T22:07:24.850Z,9.20
2018-04-11T22:09:52.324Z,9.20
2018-04-11T22:12:19.833Z,9.30
2018-04-11T22:14:47.514Z,9.20
2018-04-11T22:17:15.028Z,9.30
2018-04-11T22:19:43.934Z,9.10
2018-04-11T22:22:11.478Z,9.00
2018-04-11T22:24:39.019Z,9.00
2018-04-11T22:27:07.321Z,9.00
2018-04-11T22:29:34.838Z,9.00
2018-04-11T22:32:03.137Z,9.10
2018-04-11T22:34:31.404Z,9.00
2018-04-11T22:36:59.813Z,9.00
2018-04-11T22:39:27.321Z,9.00
2018-04-11T22:41:54.840Z,8.90
2018-04-11T22:44:22.368Z,8.80
2018-04-11T22:46:49.882Z,8.80
2018-04-11T22:49:17.410Z,8.80
2018-04-11T22:51:44.919Z,8.80
2018-04-11T22:54:13.226Z,8.80
2018-04-11T22:56:40.744Z,8.80
2018-04-11T22:59:08.632Z,8.70
2018-04-11T23:01:36.171Z,8.70
2018-04-11T23:04:04.450Z,8.60
2018-04-11T23:06:32.871Z,8.60
2018-04-11T23:09:00.395Z,8.60
2018-04-11T23:11:29.355Z,8.50
2018-04-11T23:13:56.877Z,8.50
2018-04-11T23:16:24.389Z,8.50
2018-04-11T23:18:52.659Z,8.50
2018-04-11T23:21:20.266Z,8.50
2018-04-11T23:23:47.880Z,8.50
2018-04-11T23:26:15.400Z,8.40
2018-04-11T23:28:42.911Z,8.50
2018-04-11T23:31:11.228Z,8.50
2018-04-11T23:33:38.730Z,8.40
2018-04-11T23:36:06.236Z,8.40
2018-04-11T23:38:33.787Z,8.30
2018-04-11T23:41:01.281Z,8.40
2018-04-11T23:43:28.792Z,8.30
2018-04-11T23:45:56.362Z,8.30
2018-04-11T23:48:23.861Z,8.30
2018-04-11T23:50:51.411Z,8.20
2018-04-11T23:53:18.970Z,8.20
2018-04-11T23:55:46.490Z,8.20
2018-04-11T23:58:14.018Z,8.20
